CST,Max TemperatureF,Mean TemperatureF,Min TemperatureF,Max Dew PointF,MeanDew PointF,Min DewpointF,Max Humidity, Mean Humidity, Min Humidity, Max Sea Level PressureIn, Mean Sea Level PressureIn, Min Sea Level PressureIn, Max VisibilityMiles, Mean VisibilityMiles, Min VisibilityMiles, Max Wind SpeedMPH, Mean Wind SpeedMPH, Max Gust SpeedMPH,PrecipitationIn, CloudCover, Events, WindDirDegrees
2013-12-1,51,46,40,37,32,27,76,61,45,30.23,30.11,29.96,10,10,10,12,5,14,0.00,8,,199
2013-12-2,56,50,43,45,42,37,93,77,61,29.94,29.83,29.77,10,8,2,10,3,13,0.00,7,,171
2013-12-3,60,53,45,53,50,45,100,85,69,29.84,29.80,29.76,10,5,0,12,4,15,0.00,7,Fog,150
2013-12-4,73,64,54,60,56,53,100,77,53,29.85,29.80,29.72,10,7,2,23,11,30,0.00,5,,166
2013-12-5,68,52,35,64,45,33,96,86,76,30.16,30.00,29.83,10,5,0,21,8,30,1.48,8,Fog-Rain-Thunderstorm,324
2013-12-6,35,32,29,34,30,26,96,91,85,30.42,30.20,30.08,10,7,2,14,7,20,0.64,8,Rain,6
2013-12-7,30,28,26,25,23,21,92,84,75,30.58,30.51,30.42,10,8,5,15,8,20,0.00,8,,22
2013-12-8,39,34,28,37,31,24,100,93,85,30.36,30.20,30.05,10,5,2,15,6,18,0.43,8,Rain,64
2013-12-9,36,32,28,34,27,21,96,83,69,30.28,30.22,30.11,10,9,4,12,5,16,0.00,8,,307
2013-12-10,36,29,21,23,21,18,88,72,56,30.43,30.34,30.19,10,9,3,14,5,18,T,4,Snow,288
2013-12-11,44,31,18,27,20,15,92,69,45,30.58,30.47,30.40,10,10,7,18,5,24,0.00,1,,293
2013-12-12,33,24,15,16,12,7,88,62,35,30.64,30.55,30.43,10,10,10,8,2,12,0.00,0,,288
2013-12-13,44,30,16,31,19,12,84,59,33,30.40,30.26,30.09,10,10,10,13,3,15,T,3,Rain,130
2013-12-14,47,41,35,45,38,30,96,83,70,30.03,29.89,29.78,10,7,2,15,8,21,0.42,8,Rain,249
2013-12-15,35,33,30,29,26,24,85,79,72,30.23,30.16,30.03,10,9,6,16,9,22,0.00,8,,275
2013-12-16,51,41,30,33,30,27,85,68,50,30.20,30.13,30.06,10,10,8,20,8,24,0.00,1,,214
2013-12-17,51,38,25,36,30,22,85,66,46,30.30,30.16,30.08,10,10,9,22,6,29,0.00,1,,253
2013-12-18,48,36,23,24,19,10,84,53,21,30.38,30.28,30.15,10,10,9,15,6,20,0.00,0,,197
2013-12-19,62,49,36,43,32,21,61,50,38,30.20,30.11,30.02,10,10,10,24,11,31,0.00,3,,195
2013-12-20,63,58,52,56,49,28,84,60,35,30.02,29.97,29.89,10,10,7,23,15,29,0.06,7,Rain,192
2013-12-21,74,67,60,64,60,56,90,79,68,29.89,29.73,29.56,10,8,0,45,16,62,1.21,7,Fog-Rain-Thunderstorm,190
2013-12-22,62,50,38,59,47,35,90,81,72,30.16,29.93,29.63,10,10,6,18,10,25,0.30,6,Rain,266
2013-12-23,39,34,28,33,25,19,92,76,59,30.48,30.36,30.17,10,10,8,14,7,19,T,7,,325
2013-12-24,29,24,19,20,12,5,69,54,38,30.62,30.54,30.46,10,10,10,14,5,21,T,3,,343
2013-12-25,43,30,16,21,15,11,84,57,29,30.48,30.38,30.30,10,10,10,14,4,17,0.00,2,,206
2013-12-26,44,34,24,28,24,19,92,68,43,30.46,30.39,30.31,10,10,7,8,2,13,0.00,1,,250
2013-12-27,51,36,20,28,23,18,96,66,35,30.50,30.43,30.38,10,10,7,12,3,13,0.00,0,,203
2013-12-28,47,34,21,38,29,20,92,67,42,30.38,30.22,30.00,10,9,3,5,1,6,0.14,3,Rain,140
2013-12-29,51,41,31,41,36,25,100,83,66,30.17,29.99,29.91,10,7,2,18,8,34,0.33,7,Rain,270
2013-12-30,31,27,23,25,22,18,85,74,63,30.32,30.26,30.16,10,10,9,12,4,16,0.00,6,,312
2013-12-31,42,32,21,22,20,17,88,65,41,30.47,30.38,30.32,10,10,10,8,4,11,0.00,0,,202